Annette Island Airport Annette US
ICAO: PANT
IATA:
Category: Medium
Scheduled Services:

Elevation: 119 ft
TransAlt. 18000 ft.

Airport Communications:
ASOS:135.75
CTAF:122.9
KETCHIKAN RDO:122.4

PANT Zoom In..

If you have problems with the map follow the link
https://www.worldairports.se/pages/airport.php?
ICAO=PANT

Runways:

(A) RW 02 length 5709 ft width 150 ft
---- / hdg 20

(B) RW 12 length 7493 ft width 150 ft
---- / hdg 124

(C) RW 20 length 5709 ft width 150 ft
---- / hdg 200

(D) RW 30 length 7493 ft width 150 ft
---- / hdg 304

Location; PANT
Day. 14 / Time. 10.53 Zulu
* Altimeter: 29.79
* Temperature: 09° c. 48.2°f.
* Wind from: 140° Speed 10 kn.
Dewpoint: 08° c.
Visibility: 10 Statute Miles.
Clouds: Broken 1300 ft.
Clouds: Overcast 6000 ft.

PANT 141053Z AUTO 14010KT 10SM BKN013 OVC060 09/08 A2979 RMK SLP087 T00890083 TSNO VIA AUTODIAL


Wind From 140°
Speed 10 kn.

 
 
jpsmedia.com for Web Design worldairports.se 2018   terms of use